LiveATC.Net - Listen to live air traffic control over the Internet!


ICAO: PASO  IATA: SOV   Airport: Seldovia Airport
City: Seldovia   State/Province: Alaska
Country: United States   Continent: North America
PASO METAR Weather: PASO 190853Z AUTO 00000KT 10SM CLR 01/00 A3011 RMK AO2 SLP197 T00110000 401280011 58005 TSNO
PASO Flight Activity (FlightAware)
PASO Airport Info   (iFlightPlanner)
PASO VFR Sectional Chart   (iFlightPlanner) 
PASO IFR Low Chart   (iFlightPlanner) 

Kachemak Bay CTAF
Feed Status: UP   Listeners: 0
Listen in your browser - HTML5 player (in browser, HTML5)
Click here to listen with your own player (launches your MP3 player)
Archive Access: Kachemak Bay CTAF
FacilityFrequency
Kachemak Bay CTAF122.900

NOTICE

Unauthorized use prohibited. See LiveATC.net Terms of Service


Airport/ARTCC Code
Frequency Search
(e.g., 124.400, 128.75)
Site-wide search
 


Browse Feeds
Top 50 Feeds
HF Oceanic Feeds
Coverage Map
Bad Weather Areas

LiveATC FAQ
Offer LiveATC feed
Contact LiveATC.net
Press Inquiries

LiveATC on iPhone
LiveATC on Android

Windows Phone
Windows 8/10

LiveATC Mobile
(Mobile browser)

ATC Audio Archives
Interesting Recordings

LiveATC Forums


Home Page
About LiveATC.net
Make a Donation
Terms of Use
Privacy Policy

Canadian Air Freqs

AIRMETs/SIGMETs

FAA Airport Status
Nat'l Airspace Status
Arrival Demand Charts


Server Software By:
Icecast.org
Liquidsoap